createdAt,value
2022-11-15T00:02:44.540Z,101061.81
2022-11-15T00:05:48.945Z,101062.78
2022-11-15T00:08:52.498Z,101050.66
2022-11-15T00:11:56.138Z,101043.88
2022-11-15T00:14:59.661Z,101061.28
2022-11-15T00:18:05.426Z,101050.84
2022-11-15T00:21:13.562Z,101050.97
2022-11-15T00:24:17.129Z,101050.09
2022-11-15T00:27:20.714Z,101060.50
2022-11-15T00:30:24.380Z,101061.53
2022-11-15T00:33:29.663Z,101062.44
2022-11-15T00:36:36.454Z,101065.94
2022-11-15T00:39:40.018Z,101066.09
2022-11-15T00:42:44.287Z,101066.16
2022-11-15T00:45:47.825Z,101071.50
2022-11-15T00:48:52.759Z,101077.59
2022-11-15T00:51:56.268Z,101076.84
2022-11-15T00:54:59.816Z,101082.03
2022-11-15T00:58:03.422Z,101084.72
2022-11-15T01:01:12.534Z,101073.41
2022-11-15T01:04:18.030Z,101071.56
2022-11-15T01:07:21.742Z,101064.81
2022-11-15T01:10:26.921Z,101065.59
2022-11-15T01:13:33.888Z,101064.03
2022-11-15T01:16:37.655Z,101072.72
2022-11-15T01:19:42.618Z,101067.56
2022-11-15T01:22:46.193Z,101062.38
2022-11-15T01:25:49.771Z,101061.50
2022-11-15T01:28:53.772Z,101055.41
2022-11-15T01:31:57.578Z,101054.63
2022-11-15T01:35:02.587Z,101048.53
2022-11-15T01:38:06.130Z,101046.88
2022-11-15T01:41:17.022Z,101050.34
2022-11-15T01:44:48.326Z,101041.81
2022-11-15T01:47:56.233Z,101039.25
2022-11-15T01:51:03.562Z,101033.19
2022-11-15T01:54:12.204Z,101013.28
2022-11-15T01:57:16.458Z,101015.91
2022-11-15T02:00:20.320Z,101015.03
2022-11-15T02:03:33.868Z,101011.63
2022-11-15T02:06:40.451Z,101011.63
2022-11-15T02:09:45.418Z,101002.16
2022-11-15T02:12:50.523Z,101001.28
2022-11-15T02:16:07.824Z,101007.34
2022-11-15T02:19:38.697Z,101010.75
2022-11-15T02:23:06.562Z,101015.00
2022-11-15T02:26:55.668Z,101015.84
2022-11-15T02:30:36.587Z,101013.13
2022-11-15T02:33:52.386Z,101016.56
2022-11-15T02:37:06.588Z,101006.06
2022-11-15T02:40:23.284Z,101001.66
2022-11-15T02:43:57.288Z,100997.25
2022-11-15T02:47:14.627Z,100986.72
2022-11-15T02:50:23.381Z,100981.50
2022-11-15T02:53:28.340Z,100998.75
2022-11-15T02:56:32.156Z,101001.28
2022-11-15T03:00:05.463Z,100998.63
2022-11-15T03:03:37.480Z,100998.56
2022-11-15T03:06:53.212Z,100995.03
2022-11-15T03:10:07.717Z,100987.97
2022-11-15T03:13:26.893Z,101000.03
2022-11-15T03:16:39.006Z,100991.31
2022-11-15T03:19:49.495Z,100986.06
2022-11-15T03:22:56.568Z,100979.03
2022-11-15T03:26:02.273Z,100980.75
2022-11-15T03:29:11.614Z,100979.75
2022-11-15T03:32:20.637Z,100986.69
2022-11-15T03:35:29.304Z,100980.56
2022-11-15T03:38:36.994Z,100982.22
2022-11-15T03:41:50.294Z,100975.25
2022-11-15T03:45:04.577Z,100963.00
2022-11-15T03:48:16.913Z,100962.91
2022-11-15T03:51:22.871Z,100973.28
2022-11-15T03:54:26.494Z,100967.06
2022-11-15T03:57:30.210Z,100960.06
2022-11-15T04:00:34.178Z,100962.59
2022-11-15T04:03:37.907Z,100955.63
2022-11-15T04:06:42.958Z,100959.06
2022-11-15T04:10:04.598Z,100960.59
2022-11-15T04:13:08.236Z,100951.00
2022-11-15T04:16:11.767Z,100952.63
2022-11-15T04:19:33.015Z,100954.25
2022-11-15T04:22:55.217Z,100955.03
2022-11-15T04:26:03.639Z,100950.56
2022-11-15T04:29:24.519Z,100957.53
2022-11-15T04:32:28.116Z,100965.31
2022-11-15T04:35:32.508Z,100962.75
2022-11-15T04:38:38.592Z,100959.19
2022-11-15T04:41:42.187Z,100970.44
2022-11-15T04:44:45.777Z,100963.38
2022-11-15T04:47:49.952Z,100962.47
2022-11-15T04:50:53.662Z,100962.44
2022-11-15T04:53:58.639Z,100958.81
2022-11-15T04:57:02.278Z,100959.75
2022-11-15T05:00:09.821Z,100950.94
2022-11-15T05:03:31.439Z,100954.22
2022-11-15T05:06:35.386Z,100954.13
2022-11-15T05:09:40.385Z,100962.69
2022-11-15T05:12:44.074Z,100957.28
2022-11-15T05:15:49.443Z,100958.03
2022-11-15T05:18:54.491Z,100957.84
2022-11-15T05:21:58.114Z,100949.84
2022-11-15T05:25:03.027Z,100956.66
2022-11-15T05:28:07.135Z,100942.72
2022-11-15T05:31:13.485Z,100940.97
2022-11-15T05:34:18.349Z,100945.97
2022-11-15T05:37:21.986Z,100948.69
2022-11-15T05:40:27.464Z,100950.41
2022-11-15T05:43:37.162Z,100944.22
2022-11-15T05:46:44.158Z,100937.97
2022-11-15T05:49:52.938Z,100934.38
2022-11-15T05:53:11.192Z,100943.84
2022-11-15T05:56:17.247Z,100929.13
2022-11-15T05:59:21.956Z,100932.66
2022-11-15T06:02:25.630Z,100934.16
2022-11-15T06:05:29.192Z,100929.78
2022-11-15T06:08:33.256Z,100947.06
2022-11-15T06:11:38.430Z,100948.97
2022-11-15T06:14:42.525Z,100948.78
2022-11-15T06:17:46.277Z,100947.84
2022-11-15T06:20:49.982Z,100946.91
2022-11-15T06:24:01.344Z,100944.22
2022-11-15T06:27:06.955Z,100949.41
2022-11-15T06:30:12.186Z,100951.16
2022-11-15T06:33:15.950Z,100952.88
2022-11-15T06:36:19.829Z,100955.34
2022-11-15T06:39:23.492Z,100954.44
2022-11-15T06:42:28.503Z,100956.09
2022-11-15T06:45:33.097Z,100950.88
2022-11-15T06:48:38.256Z,100964.84
2022-11-15T06:51:41.867Z,100953.28
2022-11-15T06:54:45.393Z,100959.47
2022-11-15T06:57:52.251Z,100958.50
2022-11-15T07:00:56.330Z,100968.84
2022-11-15T07:04:00.111Z,100968.88
2022-11-15T07:07:03.721Z,100960.22
2022-11-15T07:10:09.842Z,100967.88
2022-11-15T07:13:14.809Z,100974.81
2022-11-15T07:16:18.428Z,100971.31
2022-11-15T07:19:22.962Z,100973.81
2022-11-15T07:22:27.053Z,100971.97
2022-11-15T07:25:30.873Z,100974.66
2022-11-15T07:28:36.805Z,100965.91
2022-11-15T07:31:41.189Z,100966.69
2022-11-15T07:34:46.265Z,100972.00
2022-11-15T07:37:57.192Z,100973.81
2022-11-15T07:41:03.440Z,100966.84
2022-11-15T07:44:08.681Z,100969.47
2022-11-15T07:47:12.376Z,100980.63
2022-11-15T07:50:16.172Z,100964.84
2022-11-15T07:53:20.071Z,100964.84
2022-11-15T07:56:23.722Z,100966.31
2022-11-15T07:59:29.372Z,100959.06
2022-11-15T08:02:34.233Z,100951.78
2022-11-15T08:05:39.963Z,100963.59
2022-11-15T08:08:43.723Z,100961.53
2022-11-15T08:11:47.351Z,100965.50
2022-11-15T08:14:52.490Z,100961.03
2022-11-15T08:17:57.753Z,100966.13
2022-11-15T08:21:03.237Z,100974.66
2022-11-15T08:24:08.001Z,100963.88
2022-11-15T08:27:15.992Z,100967.78
2022-11-15T08:30:21.575Z,100962.38
2022-11-15T08:33:25.782Z,100955.19
2022-11-15T08:36:36.886Z,100966.13
2022-11-15T08:39:45.302Z,100971.06
2022-11-15T08:42:49.572Z,100970.03
2022-11-15T08:45:57.487Z,100969.09
2022-11-15T08:49:01.165Z,100961.13
2022-11-15T08:52:05.099Z,100967.94
2022-11-15T08:55:10.190Z,100964.34
2022-11-15T08:58:13.866Z,100965.81
2022-11-15T09:01:21.793Z,100959.84
2022-11-15T09:04:26.140Z,100957.81
2022-11-15T09:07:30.966Z,100962.69
2022-11-15T09:10:34.637Z,100958.59
2022-11-15T09:13:39.166Z,100951.38
2022-11-15T09:16:44.110Z,100955.53
2022-11-15T09:19:47.692Z,100951.25
2022-11-15T09:22:51.346Z,100951.88
2022-11-15T09:26:00.761Z,100958.94
2022-11-15T09:29:04.906Z,100952.50
2022-11-15T09:32:10.003Z,100962.75
2022-11-15T09:35:14.138Z,100964.69
2022-11-15T09:38:17.995Z,100968.59
2022-11-15T09:42:00.571Z,100963.34
2022-11-15T09:45:20.219Z,100963.66
2022-11-15T09:48:54.293Z,100956.69
2022-11-15T09:51:58.468Z,100952.44
2022-11-15T09:55:02.223Z,100956.75
2022-11-15T09:58:19.153Z,100947.78
2022-11-15T10:01:41.595Z,100947.59
2022-11-15T10:04:46.719Z,100938.47
2022-11-15T10:08:04.123Z,100937.91
2022-11-15T10:14:38.252Z,100928.81
2022-11-15T10:18:19.206Z,100933.09
2022-11-15T10:21:42.743Z,100918.00
2022-11-15T10:24:49.063Z,100910.94
2022-11-15T10:27:59.382Z,100909.63
2022-11-15T10:31:03.702Z,100905.91
2022-11-15T10:34:16.118Z,100900.28
2022-11-15T10:37:31.990Z,100892.78
2022-11-15T10:40:36.152Z,100894.06
2022-11-15T10:43:39.831Z,100880.09
2022-11-15T10:46:48.028Z,100880.44
2022-11-15T10:50:05.478Z,100879.66
2022-11-15T10:53:24.610Z,100871.31
2022-11-15T10:56:29.425Z,100869.88
2022-11-15T10:59:39.301Z,100866.63
2022-11-15T11:02:59.873Z,100860.19
2022-11-15T11:06:13.277Z,100855.97
2022-11-15T11:09:32.538Z,100850.50
2022-11-15T11:12:37.838Z,100847.06
2022-11-15T11:15:47.482Z,100850.53
2022-11-15T11:19:00.885Z,100838.78
2022-11-15T11:22:18.321Z,100836.53
2022-11-15T11:25:36.339Z,100831.47
2022-11-15T11:28:52.731Z,100837.72
2022-11-15T11:32:09.982Z,100824.63
2022-11-15T11:35:22.032Z,100831.94
2022-11-15T11:38:50.248Z,100821.38
2022-11-15T11:42:13.027Z,100822.72
2022-11-15T11:45:29.004Z,100827.06
2022-11-15T11:48:44.772Z,100813.91
2022-11-15T11:51:56.999Z,100813.25
2022-11-15T11:55:16.292Z,100804.66
2022-11-15T11:58:32.328Z,100803.78
2022-11-15T12:01:44.044Z,100809.47
2022-11-15T12:04:54.691Z,100808.41
2022-11-15T12:08:07.326Z,100813.41
2022-11-15T12:11:19.693Z,100806.44
2022-11-15T12:14:34.759Z,100801.34
2022-11-15T12:17:40.714Z,100795.34
2022-11-15T12:21:03.275Z,100795.66
2022-11-15T12:24:17.504Z,100788.81
2022-11-15T12:27:35.632Z,100787.66
2022-11-15T12:30:53.086Z,100794.16
2022-11-15T12:34:04.393Z,100787.47
2022-11-15T12:37:48.388Z,100782.38
2022-11-15T12:41:18.108Z,100769.88
2022-11-15T12:45:01.237Z,100759.47
2022-11-15T12:49:03.874Z,100763.34
2022-11-15T12:52:10.718Z,100763.50
2022-11-15T12:55:35.405Z,100757.72
2022-11-15T12:58:47.225Z,100752.66
2022-11-15T13:02:04.373Z,100747.69
2022-11-15T13:06:00.407Z,100747.22
2022-11-15T13:09:05.069Z,100733.28
2022-11-15T13:12:14.818Z,100736.41
2022-11-15T13:15:42.540Z,100737.09
2022-11-15T13:18:56.792Z,100729.91
2022-11-15T13:22:19.305Z,100732.06
2022-11-15T13:26:09.672Z,100725.72
2022-11-15T13:29:20.294Z,100717.97
2022-11-15T13:32:24.605Z,100721.00
2022-11-15T13:35:32.065Z,100721.88
2022-11-15T13:38:40.022Z,100722.50
2022-11-15T13:41:51.777Z,100727.03
2022-11-15T13:45:01.169Z,100728.59
2022-11-15T13:48:07.480Z,100719.91
2022-11-15T13:51:21.587Z,100728.59
2022-11-15T13:54:31.992Z,100723.25
2022-11-15T13:57:46.271Z,100724.25
2022-11-15T14:00:49.951Z,100722.19
2022-11-15T14:03:59.169Z,100712.69
2022-11-15T14:07:04.719Z,100712.81
2022-11-15T14:10:33.549Z,100704.69
2022-11-15T14:13:37.854Z,100710.31
2022-11-15T14:16:44.240Z,100714.19
2022-11-15T14:19:47.824Z,100711.06
2022-11-15T14:22:56.429Z,100710.59
2022-11-15T14:26:03.555Z,100702.25
2022-11-15T14:29:27.900Z,100697.03
2022-11-15T14:32:44.455Z,100701.50
2022-11-15T14:35:48.594Z,100695.72
2022-11-15T14:38:52.237Z,100699.00
2022-11-15T14:41:57.353Z,100698.00
2022-11-15T14:45:00.973Z,100690.63
2022-11-15T14:48:04.908Z,100696.34
2022-11-15T14:51:15.742Z,100705.50
2022-11-15T14:54:19.374Z,100703.53
2022-11-15T14:57:24.678Z,100694.47
2022-11-15T15:00:33.844Z,100698.13
2022-11-15T15:03:38.737Z,100696.91
2022-11-15T15:06:42.395Z,100702.03
2022-11-15T15:09:47.578Z,100687.56
2022-11-15T15:12:52.645Z,100692.47
2022-11-15T15:15:56.266Z,100696.19
2022-11-15T15:18:59.824Z,100684.38
2022-11-15T15:22:03.564Z,100688.03
2022-11-15T15:25:23.329Z,100689.25
2022-11-15T15:28:33.082Z,100686.78
2022-11-15T15:31:38.210Z,100682.00
2022-11-15T15:34:41.880Z,100687.41
2022-11-15T15:37:49.070Z,100688.94
2022-11-15T15:40:52.669Z,100689.31
2022-11-15T15:43:57.694Z,100684.19
2022-11-15T15:47:01.233Z,100684.19
2022-11-15T15:50:06.305Z,100690.84
2022-11-15T15:53:11.409Z,100688.47
2022-11-15T15:56:15.375Z,100686.81
2022-11-15T15:59:20.484Z,100675.72
2022-11-15T16:02:24.039Z,100659.66
2022-11-15T16:05:27.653Z,100660.81
2022-11-15T16:08:47.502Z,100673.25
2022-11-15T16:11:55.720Z,100676.19
2022-11-15T16:15:01.329Z,100669.28
2022-11-15T16:18:08.872Z,100662.31
2022-11-15T16:21:12.915Z,100657.72
2022-11-15T16:24:16.603Z,100658.06
2022-11-15T16:27:22.593Z,100657.13
2022-11-15T16:30:27.616Z,100645.63
2022-11-15T16:33:31.747Z,100642.28
2022-11-15T16:36:37.535Z,100629.19
2022-11-15T16:39:41.114Z,100636.75
2022-11-15T16:42:44.654Z,100628.22
2022-11-15T16:45:51.757Z,100626.34
2022-11-15T16:48:56.465Z,100622.75
2022-11-15T16:52:00.030Z,100615.91
2022-11-15T16:55:03.779Z,100619.16
2022-11-15T16:58:07.405Z,100617.19
2022-11-15T17:01:21.287Z,100619.94
2022-11-15T17:04:25.986Z,100616.25
2022-11-15T17:07:29.999Z,100617.19
2022-11-15T17:10:33.624Z,100615.22
2022-11-15T17:13:38.159Z,100619.50
2022-11-15T17:16:44.556Z,100609.84
2022-11-15T17:19:48.126Z,100610.56
2022-11-15T17:22:52.776Z,100601.03
2022-11-15T17:26:17.623Z,100602.56
2022-11-15T17:29:24.602Z,100597.13
2022-11-15T17:32:29.541Z,100599.44
2022-11-15T17:35:35.970Z,100605.56
2022-11-15T17:38:39.634Z,100597.38
2022-11-15T17:41:43.250Z,100588.78
2022-11-15T17:44:46.935Z,100592.88
2022-11-15T17:47:52.031Z,100587.63
2022-11-15T17:51:01.028Z,100585.78
2022-11-15T17:54:04.766Z,100589.31
2022-11-15T17:57:08.366Z,100582.38
2022-11-15T18:00:14.060Z,100578.72
2022-11-15T18:03:19.907Z,100574.19
2022-11-15T18:06:26.015Z,100573.97
2022-11-15T18:09:29.878Z,100567.06
2022-11-15T18:12:33.494Z,100554.84
2022-11-15T18:15:37.427Z,100552.38
2022-11-15T18:18:43.078Z,100561.13
2022-11-15T18:22:01.394Z,100547.94
2022-11-15T18:25:05.542Z,100548.34
2022-11-15T18:28:09.363Z,100548.44
2022-11-15T18:31:18.301Z,100555.47
2022-11-15T18:34:24.727Z,100549.66
2022-11-15T18:37:28.323Z,100554.34
2022-11-15T18:40:32.259Z,100542.44
2022-11-15T18:43:36.515Z,100541.72
2022-11-15T18:46:40.294Z,100541.22
2022-11-15T18:49:45.996Z,100542.50
2022-11-15T18:52:49.593Z,100535.81
2022-11-15T18:55:53.335Z,100539.31
2022-11-15T18:58:59.522Z,100541.28
2022-11-15T19:02:03.105Z,100530.88
2022-11-15T19:05:09.272Z,100531.75
2022-11-15T19:08:12.821Z,100536.25
2022-11-15T19:11:19.723Z,100540.00
2022-11-15T19:14:26.233Z,100540.00
2022-11-15T19:17:29.770Z,100539.81
2022-11-15T19:20:37.339Z,100540.75
2022-11-15T19:23:43.438Z,100538.97
2022-11-15T19:26:47.148Z,100531.88
2022-11-15T19:29:50.840Z,100529.25
2022-11-15T19:32:54.493Z,100523.16
2022-11-15T19:36:03.927Z,100523.25
2022-11-15T19:39:13.135Z,100527.47
2022-11-15T19:42:16.980Z,100515.06
2022-11-15T19:45:24.702Z,100509.78
2022-11-15T19:48:29.207Z,100510.41
2022-11-15T19:51:34.535Z,100508.38
2022-11-15T19:54:38.212Z,100509.25
2022-11-15T19:57:41.794Z,100507.34
2022-11-15T20:00:45.530Z,100513.41
2022-11-15T20:03:50.925Z,100499.69
2022-11-15T20:06:55.942Z,100502.34
2022-11-15T20:10:00.340Z,100508.31
2022-11-15T20:13:03.931Z,100508.31
2022-11-15T20:16:08.409Z,100515.22
2022-11-15T20:19:13.110Z,100507.34
2022-11-15T20:22:18.012Z,100505.59
2022-11-15T20:25:21.654Z,100506.63
2022-11-15T20:28:28.276Z,100502.28
2022-11-15T20:31:32.657Z,100500.47
2022-11-15T20:34:36.507Z,100495.22
2022-11-15T20:37:42.035Z,100494.94
2022-11-15T20:40:48.089Z,100489.50
2022-11-15T20:43:51.796Z,100481.63
2022-11-15T20:46:55.325Z,100479.63
2022-11-15T20:50:14.966Z,100473.31
2022-11-15T20:53:26.964Z,100474.03
2022-11-15T20:56:34.035Z,100460.94
2022-11-15T20:59:37.595Z,100460.81
2022-11-15T21:02:41.250Z,100456.34
2022-11-15T21:05:46.024Z,100459.84
2022-11-15T21:09:10.075Z,100455.44
2022-11-15T21:12:15.026Z,100458.41
2022-11-15T21:15:18.962Z,100453.09
2022-11-15T21:18:23.045Z,100450.59
2022-11-15T21:21:26.722Z,100449.63
2022-11-15T21:24:31.773Z,100452.31
2022-11-15T21:27:35.502Z,100447.00
2022-11-15T21:30:40.061Z,100437.50
2022-11-15T21:33:43.782Z,100430.88
2022-11-15T21:36:47.357Z,100432.56
2022-11-15T21:39:52.490Z,100425.56
2022-11-15T21:42:56.068Z,100426.66
2022-11-15T21:46:02.270Z,100420.44
2022-11-15T21:49:06.888Z,100422.25
2022-11-15T21:52:10.515Z,100424.88
2022-11-15T21:55:15.500Z,100416.34
2022-11-15T21:58:19.635Z,100418.16
2022-11-15T22:01:42.231Z,100417.13
2022-11-15T22:04:46.002Z,100410.84
2022-11-15T22:07:49.634Z,100411.72
2022-11-15T22:10:56.811Z,100418.50
2022-11-15T22:14:00.948Z,100417.31
2022-11-15T22:17:04.504Z,100404.22
2022-11-15T22:20:29.962Z,100400.72
2022-11-15T22:23:35.366Z,100394.44
2022-11-15T22:26:40.428Z,100393.66
2022-11-15T22:29:44.174Z,100387.44
2022-11-15T22:32:47.971Z,100393.66
2022-11-15T22:35:51.784Z,100388.34
2022-11-15T22:38:55.438Z,100380.22
2022-11-15T22:42:00.577Z,100377.72
2022-11-15T22:45:04.429Z,100376.69
2022-11-15T22:48:08.155Z,100369.66
2022-11-15T22:51:11.910Z,100370.25
2022-11-15T22:54:15.596Z,100366.13
2022-11-15T22:57:20.738Z,100368.53
2022-11-15T23:00:24.566Z,100374.75
2022-11-15T23:03:30.734Z,100380.97
2022-11-15T23:06:34.515Z,100369.59
2022-11-15T23:09:38.290Z,100365.91
2022-11-15T23:13:12.581Z,100364.34
2022-11-15T23:16:26.194Z,100359.00
2022-11-15T23:19:30.015Z,100365.94
2022-11-15T23:22:48.603Z,100363.44
2022-11-15T23:25:59.942Z,100358.13
2022-11-15T23:29:05.998Z,100344.94
2022-11-15T23:32:28.105Z,100346.41
2022-11-15T23:35:31.709Z,100336.56
2022-11-15T23:38:37.278Z,100334.81
2022-11-15T23:41:40.953Z,100334.81
2022-11-15T23:44:46.044Z,100331.06
2022-11-15T23:47:49.748Z,100332.22
2022-11-15T23:50:53.393Z,100328.97
2022-11-15T23:53:57.061Z,100322.59
2022-11-15T23:57:00.840Z,100322.53
